createdAt,value
2018-04-18T00:00:32.271Z,0
2018-04-18T00:01:12.658Z,0
2018-04-18T00:01:53.063Z,0
2018-04-18T00:02:33.475Z,0
2018-04-18T00:03:13.874Z,0
2018-04-18T00:03:54.303Z,0
2018-04-18T00:04:34.660Z,0
2018-04-18T00:05:15.036Z,0
2018-04-18T00:05:55.439Z,0
2018-04-18T00:06:35.850Z,0
2018-04-18T00:07:16.243Z,0
2018-04-18T00:07:56.660Z,0
2018-04-18T00:08:37.048Z,0
2018-04-18T00:09:17.419Z,0
2018-04-18T00:09:57.850Z,0
2018-04-18T00:10:38.261Z,0
2018-04-18T00:11:18.643Z,0
2018-04-18T00:11:59.045Z,0
2018-04-18T00:12:39.465Z,0
2018-04-18T00:13:19.851Z,0
2018-04-18T00:14:00.244Z,0
2018-04-18T00:14:40.645Z,0
2018-04-18T00:15:21.062Z,0
2018-04-18T00:16:01.466Z,0
2018-04-18T00:16:41.817Z,0
2018-04-18T00:17:22.201Z,0
2018-04-18T00:19:39.716Z,0
2018-04-18T00:20:20.150Z,0
2018-04-18T00:21:00.512Z,0
2018-04-18T00:21:40.889Z,0
2018-04-18T00:22:21.275Z,0
2018-04-18T00:23:01.697Z,0
2018-04-18T00:23:42.102Z,0
2018-04-18T00:24:22.494Z,0
2018-04-18T00:25:02.883Z,0
2018-04-18T00:25:43.318Z,0
2018-04-18T00:26:23.717Z,0
2018-04-18T00:27:04.080Z,0
2018-04-18T00:27:44.464Z,0
2018-04-18T00:28:24.893Z,0
2018-04-18T00:29:05.284Z,0
2018-04-18T00:29:45.735Z,0
2018-04-18T00:30:26.073Z,0
2018-04-18T00:31:06.488Z,0
2018-04-18T00:31:46.908Z,0
2018-04-18T00:32:27.306Z,0
2018-04-18T00:33:07.685Z,0
2018-04-18T00:33:48.101Z,0
2018-04-18T00:34:28.498Z,0
2018-04-18T00:35:08.938Z,0
2018-04-18T00:35:49.342Z,0
2018-04-18T00:36:29.754Z,0
2018-04-18T00:37:10.161Z,0
2018-04-18T00:37:50.564Z,0
2018-04-18T00:38:30.921Z,0
2018-04-18T00:39:11.326Z,0
2018-04-18T00:39:51.735Z,0
2018-04-18T00:40:32.134Z,0
2018-04-18T00:41:12.576Z,0
2018-04-18T00:41:52.930Z,0
2018-04-18T00:42:33.356Z,0
2018-04-18T00:43:13.788Z,0
2018-04-18T00:43:54.203Z,0
2018-04-18T00:44:34.623Z,0
2018-04-18T00:45:14.962Z,0
2018-04-18T00:45:55.369Z,0
2018-04-18T00:46:35.749Z,0
2018-04-18T00:47:16.133Z,0
2018-04-18T00:47:56.541Z,0
2018-04-18T00:48:36.970Z,0
2018-04-18T00:49:17.367Z,0
2018-04-18T00:49:57.764Z,0
2018-04-18T00:50:38.202Z,0
2018-04-18T00:51:18.559Z,0
2018-04-18T00:51:59.005Z,0
2018-04-18T00:52:39.385Z,0
2018-04-18T00:53:19.787Z,0
2018-04-18T00:54:00.184Z,0
2018-04-18T00:54:40.593Z,0
2018-04-18T00:55:21.019Z,0
2018-04-18T00:56:01.406Z,0
2018-04-18T00:56:41.815Z,0
2018-04-18T00:57:22.228Z,0
2018-04-18T00:58:02.643Z,0
2018-04-18T01:00:20.210Z,0
2018-04-18T01:01:00.659Z,0
2018-04-18T01:01:41.040Z,0
2018-04-18T01:02:21.440Z,0
2018-04-18T01:03:01.822Z,0
2018-04-18T01:03:42.244Z,0
2018-04-18T01:04:22.604Z,0
2018-04-18T01:05:02.972Z,0
2018-04-18T01:05:43.400Z,0
2018-04-18T01:06:23.762Z,0
2018-04-18T01:07:04.266Z,0
2018-04-18T01:07:44.627Z,0
2018-04-18T01:08:25.015Z,0
2018-04-18T01:09:05.466Z,0
2018-04-18T01:09:45.845Z,0
2018-04-18T01:10:26.326Z,0
2018-04-18T01:11:06.661Z,0
2018-04-18T01:11:47.011Z,0
2018-04-18T01:12:27.415Z,0
2018-04-18T01:13:07.840Z,0
2018-04-18T01:13:48.261Z,0
2018-04-18T01:14:28.641Z,0
2018-04-18T01:16:41.129Z,0
2018-04-18T01:17:21.562Z,0
2018-04-18T01:18:01.997Z,0
2018-04-18T01:18:42.445Z,0
2018-04-18T01:19:22.846Z,0
2018-04-18T01:20:03.280Z,0
2018-04-18T01:20:43.655Z,0
2018-04-18T01:21:24.054Z,0
2018-04-18T01:22:04.463Z,0
2018-04-18T01:22:44.859Z,0
2018-04-18T01:23:25.258Z,0
2018-04-18T01:24:05.667Z,0
2018-04-18T01:24:46.093Z,0
2018-04-18T01:25:26.462Z,0
2018-04-18T01:26:06.881Z,0
2018-04-18T01:26:47.283Z,0
2018-04-18T01:27:27.686Z,0
2018-04-18T01:28:08.089Z,0
2018-04-18T01:28:48.528Z,0
2018-04-18T01:29:28.883Z,0
2018-04-18T01:30:09.277Z,0
2018-04-18T01:30:49.680Z,0
2018-04-18T01:31:30.095Z,0
2018-04-18T01:32:10.512Z,0
2018-04-18T01:32:50.894Z,0
2018-04-18T01:33:31.360Z,0
2018-04-18T01:34:11.735Z,0
2018-04-18T01:34:52.191Z,0
2018-04-18T01:35:32.548Z,0
2018-04-18T01:36:12.961Z,0
2018-04-18T01:36:53.337Z,0
2018-04-18T01:39:21.006Z,0
2018-04-18T01:40:01.406Z,0
2018-04-18T01:40:41.810Z,0
2018-04-18T01:41:22.184Z,0
2018-04-18T01:42:02.587Z,0
2018-04-18T01:42:42.962Z,0
2018-04-18T01:43:23.368Z,0
2018-04-18T01:44:03.777Z,0
2018-04-18T01:44:44.163Z,0
2018-04-18T01:45:24.562Z,0
2018-04-18T01:46:04.971Z,0
2018-04-18T01:46:45.379Z,0
2018-04-18T01:47:25.786Z,0
2018-04-18T01:48:06.137Z,0
2018-04-18T01:48:46.522Z,0
2018-04-18T01:49:26.976Z,0
2018-04-18T01:50:07.379Z,0
2018-04-18T01:50:47.801Z,0
2018-04-18T01:51:28.179Z,0
2018-04-18T01:52:08.607Z,0
2018-04-18T01:52:48.977Z,0
2018-04-18T01:53:29.399Z,0
2018-04-18T01:54:09.754Z,0
2018-04-18T01:54:50.168Z,0
2018-04-18T01:55:30.554Z,0
2018-04-18T01:56:10.972Z,0
2018-04-18T01:56:51.423Z,0
2018-04-18T01:57:31.775Z,0
2018-04-18T01:58:12.163Z,0
2018-04-18T01:58:52.593Z,0
2018-04-18T01:59:33.007Z,0
2018-04-18T02:00:13.433Z,0
2018-04-18T02:00:53.843Z,0
2018-04-18T02:01:34.245Z,0
2018-04-18T02:02:14.605Z,0
2018-04-18T02:04:32.156Z,0
2018-04-18T02:05:12.544Z,0
2018-04-18T02:05:52.920Z,0
2018-04-18T02:06:33.308Z,0
2018-04-18T02:07:13.689Z,0
2018-04-18T02:07:54.111Z,0
2018-04-18T02:08:34.446Z,0
2018-04-18T02:09:14.878Z,0
2018-04-18T02:09:55.278Z,0
2018-04-18T02:10:35.664Z,0
2018-04-18T02:11:16.056Z,0
2018-04-18T02:11:56.527Z,0
2018-04-18T02:12:36.909Z,0
2018-04-18T02:13:17.247Z,0
2018-04-18T02:13:57.627Z,0
2018-04-18T02:14:37.996Z,0
2018-04-18T02:15:18.393Z,0
2018-04-18T02:15:58.764Z,0
2018-04-18T02:16:39.197Z,0
2018-04-18T02:17:19.591Z,0
2018-04-18T02:17:59.980Z,0
2018-04-18T02:18:40.371Z,0
2018-04-18T02:19:20.760Z,0
2018-04-18T02:20:01.177Z,0
2018-04-18T02:20:41.584Z,0
2018-04-18T02:21:22.000Z,0
2018-04-18T02:22:02.436Z,0
2018-04-18T02:22:42.801Z,0
2018-04-18T02:23:23.245Z,0
2018-04-18T02:24:03.602Z,0
2018-04-18T02:24:44.045Z,0
2018-04-18T02:25:24.452Z,0
2018-04-18T02:26:04.844Z,0
2018-04-18T02:26:45.238Z,0
2018-04-18T02:27:25.635Z,0
2018-04-18T02:28:06.012Z,0
2018-04-18T02:28:46.430Z,0
2018-04-18T02:29:26.761Z,0
2018-04-18T02:30:07.190Z,0
2018-04-18T02:30:47.550Z,0
2018-04-18T02:31:27.932Z,0
2018-04-18T02:32:08.371Z,0
2018-04-18T02:32:48.705Z,0
2018-04-18T02:33:29.091Z,0
2018-04-18T02:34:09.479Z,0
2018-04-18T02:34:49.891Z,0
2018-04-18T02:35:30.264Z,0
2018-04-18T02:36:10.666Z,0
2018-04-18T02:36:51.046Z,0
2018-04-18T02:37:31.456Z,0
2018-04-18T02:38:11.845Z,0
2018-04-18T02:38:52.263Z,0
2018-04-18T02:39:32.632Z,0
2018-04-18T02:40:13.041Z,0
2018-04-18T02:40:53.462Z,0
2018-04-18T02:41:33.827Z,0
2018-04-18T02:42:14.263Z,0
2018-04-18T02:42:54.619Z,0
2018-04-18T02:43:35.068Z,0
2018-04-18T02:44:15.442Z,0
2018-04-18T02:44:55.884Z,0
2018-04-18T02:45:36.242Z,0
2018-04-18T02:46:16.629Z,0
2018-04-18T02:46:57.024Z,0
2018-04-18T02:47:37.423Z,0
2018-04-18T02:48:17.822Z,0
2018-04-18T02:48:58.242Z,0
2018-04-18T02:49:38.619Z,0
2018-04-18T02:50:19.103Z,0
2018-04-18T02:50:59.440Z,0
2018-04-18T02:51:39.843Z,0
2018-04-18T02:52:20.195Z,0
2018-04-18T02:53:00.599Z,0
2018-04-18T02:53:40.985Z,0
2018-04-18T02:54:21.361Z,0
2018-04-18T02:55:01.787Z,0
2018-04-18T02:55:42.129Z,0
2018-04-18T02:56:22.539Z,0
2018-04-18T02:57:02.911Z,0
2018-04-18T02:57:43.324Z,0
2018-04-18T02:58:23.752Z,0
2018-04-18T02:59:04.175Z,0
2018-04-18T02:59:44.590Z,0
2018-04-18T03:00:24.991Z,0
2018-04-18T03:01:05.396Z,0
2018-04-18T03:01:45.795Z,0
2018-04-18T03:02:26.176Z,0
2018-04-18T03:03:06.587Z,0
2018-04-18T03:03:46.991Z,0
2018-04-18T03:04:27.396Z,0
2018-04-18T03:05:07.791Z,0
2018-04-18T03:05:48.191Z,0
2018-04-18T03:06:28.578Z,0
2018-04-18T03:07:08.986Z,0
2018-04-18T03:07:49.386Z,0
2018-04-18T03:08:29.804Z,0
2018-04-18T03:09:10.193Z,0
2018-04-18T03:09:50.574Z,0
2018-04-18T03:10:30.964Z,0
2018-04-18T03:11:11.371Z,0
2018-04-18T03:11:51.788Z,0
2018-04-18T03:12:32.203Z,0
2018-04-18T03:13:12.613Z,0
2018-04-18T03:13:52.988Z,0
2018-04-18T03:14:33.420Z,0
2018-04-18T03:15:13.777Z,0
2018-04-18T03:15:54.178Z,0
2018-04-18T03:16:34.577Z,0
2018-04-18T03:17:14.969Z,0
2018-04-18T03:17:55.395Z,0
2018-04-18T03:18:35.787Z,0
2018-04-18T03:19:16.180Z,0
2018-04-18T03:19:56.572Z,0
2018-04-18T03:20:36.976Z,0
2018-04-18T03:21:17.351Z,0
2018-04-18T03:21:57.745Z,0
2018-04-18T03:22:38.158Z,0
2018-04-18T03:23:18.588Z,0
2018-04-18T03:23:58.933Z,0
2018-04-18T03:24:39.352Z,0
2018-04-18T03:25:19.740Z,0
2018-04-18T03:26:00.171Z,0
2018-04-18T03:26:40.590Z,0
2018-04-18T03:27:20.948Z,0
2018-04-18T03:28:01.399Z,0
2018-04-18T03:28:41.754Z,0
2018-04-18T03:29:22.140Z,0
2018-04-18T03:30:02.542Z,0
2018-04-18T03:30:42.970Z,0
2018-04-18T03:31:23.381Z,0
2018-04-18T03:32:03.786Z,0
2018-04-18T03:32:44.193Z,0
2018-04-18T03:33:24.582Z,0
2018-04-18T03:34:04.927Z,0
2018-04-18T03:34:45.324Z,0
2018-04-18T03:37:02.873Z,0
2018-04-18T03:37:43.259Z,0
2018-04-18T03:38:23.634Z,0
2018-04-18T03:39:04.022Z,0
2018-04-18T03:39:44.431Z,0
2018-04-18T03:40:24.823Z,0
2018-04-18T03:41:05.285Z,0
2018-04-18T03:41:45.631Z,0
2018-04-18T03:42:26.031Z,0
2018-04-18T03:43:06.445Z,0
2018-04-18T03:43:46.836Z,0
2018-04-18T03:44:27.199Z,0
2018-04-18T03:45:07.588Z,0
2018-04-18T03:45:47.983Z,0
2018-04-18T03:46:28.341Z,0
2018-04-18T03:47:08.741Z,0
2018-04-18T03:47:49.112Z,0
2018-04-18T03:48:29.535Z,0
2018-04-18T03:49:09.899Z,0
2018-04-18T03:49:50.267Z,0
2018-04-18T03:50:30.696Z,0
2018-04-18T03:51:11.088Z,0
2018-04-18T03:51:51.446Z,0
2018-04-18T03:52:31.855Z,0
2018-04-18T03:53:12.205Z,0
2018-04-18T03:53:52.625Z,0
2018-04-18T03:54:33.000Z,0
2018-04-18T03:55:13.435Z,0
2018-04-18T03:55:53.781Z,0
2018-04-18T03:56:34.169Z,0
2018-04-18T03:57:14.560Z,0
2018-04-18T03:57:54.957Z,0
2018-04-18T03:58:35.342Z,0
2018-04-18T03:59:15.742Z,0
2018-04-18T03:59:56.151Z,0
2018-04-18T04:00:36.520Z,4
2018-04-18T04:01:16.988Z,4
2018-04-18T04:01:57.349Z,0
2018-04-18T04:41:58.725Z,224
2018-04-18T04:42:39.144Z,236
2018-04-18T04:43:19.500Z,248
2018-04-18T04:43:59.885Z,264
2018-04-18T04:44:40.271Z,276
2018-04-18T04:45:20.679Z,292
2018-04-18T04:46:01.109Z,308
2018-04-18T04:46:41.503Z,324
2018-04-18T04:47:21.899Z,348
2018-04-18T04:48:02.267Z,364
2018-04-18T04:48:42.657Z,388
2018-04-18T04:49:23.095Z,408
2018-04-18T04:50:03.448Z,436
2018-04-18T04:50:43.828Z,448
2018-04-18T04:51:27.092Z,488
2018-04-18T04:52:07.448Z,524
2018-04-18T04:52:47.841Z,540
2018-04-18T04:53:28.249Z,576
2018-04-18T04:54:08.744Z,632
2018-04-18T04:54:49.064Z,660
2018-04-18T04:55:29.517Z,716
2018-04-18T04:56:09.925Z,748
2018-04-18T04:56:50.294Z,800
2018-04-18T04:57:30.672Z,836
2018-04-18T04:58:11.055Z,900
2018-04-18T04:58:51.453Z,940
2018-04-18T04:59:31.920Z,1020
2018-04-18T05:00:12.284Z,1072
2018-04-18T05:00:52.701Z,1112
2018-04-18T05:01:33.371Z,1176
2018-04-18T05:02:13.822Z,1240
2018-04-18T05:02:54.225Z,1264
2018-04-18T05:03:34.655Z,1356
2018-04-18T05:04:14.990Z,1392
2018-04-18T05:04:55.411Z,1516
2018-04-18T05:05:35.799Z,1608
2018-04-18T05:06:16.249Z,1632
2018-04-18T05:06:56.617Z,1796
2018-04-18T05:07:37.042Z,1812
2018-04-18T05:08:17.423Z,1892
2018-04-18T05:08:57.791Z,1964
2018-04-18T05:09:38.155Z,2060
2018-04-18T05:10:18.655Z,2136
2018-04-18T05:10:58.993Z,2284
2018-04-18T05:11:39.411Z,2460
2018-04-18T05:12:19.815Z,2696
2018-04-18T05:13:00.239Z,2800
2018-04-18T05:13:40.758Z,2960
2018-04-18T05:14:21.249Z,3128
2018-04-18T05:15:01.650Z,3408
2018-04-18T05:15:42.092Z,3564
2018-04-18T05:16:22.508Z,3776
2018-04-18T05:17:02.984Z,3884
2018-04-18T05:17:43.508Z,4152
2018-04-18T05:18:24.002Z,4384
2018-04-18T05:19:04.519Z,4496
2018-04-18T05:19:44.984Z,4488
2018-04-18T05:20:25.480Z,4928
2018-04-18T05:21:05.975Z,5200
2018-04-18T05:21:46.402Z,5220
2018-04-18T05:22:26.744Z,5348
2018-04-18T05:23:07.149Z,5544
2018-04-18T05:23:47.619Z,5800
2018-04-18T05:24:28.156Z,5940
2018-04-18T05:25:08.618Z,6080
2018-04-18T05:25:49.074Z,5976
2018-04-18T05:26:29.553Z,6280
2018-04-18T05:27:09.955Z,6344
2018-04-18T05:27:50.352Z,6756
2018-04-18T05:28:30.874Z,6812
2018-04-18T05:29:11.161Z,6948
2018-04-18T05:29:51.558Z,7456
2018-04-18T05:30:31.961Z,7768
2018-04-18T05:31:12.329Z,8124
2018-04-18T05:31:52.841Z,8308
2018-04-18T05:32:33.327Z,8328
2018-04-18T05:33:13.968Z,8968
2018-04-18T05:33:54.136Z,9108
2018-04-18T05:34:34.499Z,9260
2018-04-18T05:35:14.960Z,9348
2018-04-18T05:35:55.369Z,9644
2018-04-18T05:36:35.783Z,9900
2018-04-18T05:37:16.219Z,9916
2018-04-18T05:37:56.869Z,10220
2018-04-18T05:38:37.319Z,10324
2018-04-18T05:39:17.692Z,10476
2018-04-18T05:39:58.072Z,10712
2018-04-18T05:40:38.478Z,11104
2018-04-18T05:41:18.847Z,11264
2018-04-18T05:41:59.346Z,11296
2018-04-18T05:42:39.767Z,11712
2018-04-18T05:43:20.254Z,12416
2018-04-18T05:44:00.724Z,12608
2018-04-18T05:44:41.259Z,12896
2018-04-18T05:45:24.227Z,13120
2018-04-18T05:46:04.781Z,13376
2018-04-18T05:46:48.923Z,13984
2018-04-18T05:47:28.131Z,14336
2018-04-18T05:48:08.944Z,14784
2018-04-18T05:48:49.512Z,15008
2018-04-18T05:49:29.885Z,14976
2018-04-18T05:50:10.304Z,15424
2018-04-18T05:50:50.698Z,15936
2018-04-18T05:51:31.179Z,16320
2018-04-18T05:52:11.645Z,16256
2018-04-18T05:52:52.053Z,16384
2018-04-18T05:53:32.494Z,16800
2018-04-18T05:54:12.962Z,16512
2018-04-18T05:54:53.567Z,17184
2018-04-18T05:55:35.633Z,17472
2018-04-18T05:56:16.063Z,17664
2018-04-18T05:56:56.687Z,17856
2018-04-18T05:57:37.173Z,17984
2018-04-18T05:58:17.906Z,18048
2018-04-18T05:58:58.086Z,18272
2018-04-18T05:59:38.503Z,18496
2018-04-18T06:00:18.890Z,19200
2018-04-18T06:00:59.273Z,19520
2018-04-18T06:01:39.661Z,19872
2018-04-18T06:02:20.160Z,19648
2018-04-18T06:03:00.610Z,19552
2018-04-18T06:03:40.972Z,20096
2018-04-18T06:04:21.361Z,20672
2018-04-18T06:05:01.786Z,21312
2018-04-18T06:05:42.177Z,21408
2018-04-18T06:06:22.631Z,21792
2018-04-18T06:07:03.086Z,22112
2018-04-18T06:07:43.533Z,22560
2018-04-18T06:08:24.148Z,22784
2018-04-18T06:09:04.357Z,22624
2018-04-18T06:09:45.398Z,22912
2018-04-18T06:10:26.382Z,23136
2018-04-18T06:11:06.236Z,22976
2018-04-18T06:11:46.694Z,23648
2018-04-18T06:12:28.177Z,23936
2018-04-18T06:13:08.744Z,24064
2018-04-18T06:13:49.896Z,24512
2018-04-18T06:14:29.729Z,24704
2018-04-18T06:15:10.246Z,24768
2018-04-18T06:15:51.021Z,24608
2018-04-18T06:16:31.557Z,24672
2018-04-18T06:17:12.129Z,25600
2018-04-18T06:17:52.860Z,25792
2018-04-18T06:18:33.296Z,26208
2018-04-18T06:19:14.403Z,26112
2018-04-18T06:19:54.545Z,27648
2018-04-18T06:20:34.977Z,29600
2018-04-18T06:21:15.468Z,30336
2018-04-18T06:21:55.825Z,31360
2018-04-18T06:22:36.377Z,31200
2018-04-18T06:23:16.768Z,32128
2018-04-18T06:23:57.448Z,30208
2018-04-18T06:24:37.972Z,28448
2018-04-18T06:25:18.410Z,27488
2018-04-18T06:25:58.840Z,26560
2018-04-18T06:26:39.258Z,25344
2018-04-18T06:27:19.723Z,23776
2018-04-18T06:28:00.077Z,22336
2018-04-18T06:28:40.478Z,21120
2018-04-18T06:29:20.931Z,20768
2018-04-18T06:30:01.849Z,20096
2018-04-18T06:30:42.244Z,19936
2018-04-18T06:31:22.696Z,19136
2018-04-18T06:32:03.280Z,18464
2018-04-18T06:32:43.712Z,18208
2018-04-18T06:33:24.090Z,18048
2018-04-18T06:34:04.520Z,17760
2018-04-18T06:34:44.920Z,17440
2018-04-18T06:35:25.311Z,16896
2018-04-18T06:36:05.715Z,16992
2018-04-18T06:36:46.156Z,17152
2018-04-18T06:37:26.534Z,17664
2018-04-18T06:38:06.897Z,17408
2018-04-18T06:40:04.909Z,18368
2018-04-18T06:40:47.701Z,18176
2018-04-18T06:42:45.270Z,17216
2018-04-18T06:43:26.638Z,16736
2018-04-18T06:44:06.537Z,16416
2018-04-18T06:44:48.447Z,16288
2018-04-18T06:45:28.293Z,16128
2018-04-18T06:46:08.779Z,16640
2018-04-18T06:46:50.501Z,17440
2018-04-18T06:47:30.372Z,17472
2018-04-18T06:48:11.038Z,16832
2018-04-18T06:48:52.000Z,16256
2018-04-18T06:49:32.645Z,16096
2018-04-18T06:50:13.410Z,15424
2018-04-18T06:50:53.848Z,15424
2018-04-18T06:51:34.647Z,14848
2018-04-18T06:52:15.863Z,14272
2018-04-18T06:52:56.490Z,14400
2018-04-18T06:53:36.937Z,14592
2018-04-18T06:54:17.671Z,14400
2018-04-18T06:54:58.053Z,14096
2018-04-18T06:55:39.308Z,14176
2018-04-18T06:56:36.652Z,14052
2018-04-18T06:57:17.141Z,14108
2018-04-18T06:57:57.743Z,13728
2018-04-18T06:58:38.081Z,13764
2018-04-18T06:59:18.944Z,14044
2018-04-18T06:59:59.486Z,14432
2018-04-18T07:00:40.362Z,14816
2018-04-18T07:01:21.159Z,15232
2018-04-18T07:02:01.587Z,15168
2018-04-18T07:03:08.958Z,14720
2018-04-18T07:03:48.598Z,14184
2018-04-18T07:04:29.351Z,13472
2018-04-18T07:05:13.919Z,13012
2018-04-18T07:05:55.078Z,12672
2018-04-18T07:06:37.490Z,12836
2018-04-18T07:07:19.779Z,13232
2018-04-18T07:08:00.412Z,13156
2018-04-18T07:08:42.439Z,13060
2018-04-18T07:09:26.004Z,13108
2018-04-18T07:10:09.528Z,13292
2018-04-18T07:10:48.625Z,13308
2018-04-18T07:11:29.536Z,12592
2018-04-18T07:12:10.957Z,11544
2018-04-18T07:12:51.339Z,11052
2018-04-18T07:13:31.728Z,10968
2018-04-18T07:14:12.529Z,10992
2018-04-18T07:14:53.006Z,10980
2018-04-18T07:15:33.400Z,10896
2018-04-18T07:16:13.996Z,10872
2018-04-18T07:16:54.392Z,10756
2018-04-18T07:17:35.587Z,10640
2018-04-18T07:18:16.497Z,10808
2018-04-18T07:18:56.585Z,11044
2018-04-18T07:19:37.083Z,11108
2018-04-18T07:20:17.639Z,11124
2018-04-18T07:20:58.332Z,11208
2018-04-18T07:21:38.809Z,11372
2018-04-18T07:22:20.209Z,11592
2018-04-18T07:23:00.507Z,11464
2018-04-18T07:23:41.260Z,11536
2018-04-18T07:24:22.418Z,11356
2018-04-18T07:25:05.007Z,10540
2018-04-18T07:25:45.596Z,9092
2018-04-18T07:26:26.372Z,7616
2018-04-18T07:28:45.223Z,6000
2018-04-18T07:29:26.060Z,5792
2018-04-18T07:30:06.636Z,5696
2018-04-18T07:30:46.425Z,5648
2018-04-18T07:31:26.859Z,5740
2018-04-18T07:32:07.446Z,5704
2018-04-18T07:32:47.858Z,5568
2018-04-18T07:33:28.561Z,5476
2018-04-18T07:34:09.576Z,5432
2018-04-18T07:34:49.718Z,5328
2018-04-18T07:35:30.375Z,5348
2018-04-18T07:36:11.545Z,5244
2018-04-18T07:36:52.278Z,5156
2018-04-18T07:37:32.747Z,5052
2018-04-18T07:38:14.028Z,5016
2018-04-18T07:38:55.226Z,4980
2018-04-18T07:39:34.776Z,4948
2018-04-18T07:40:16.070Z,4848
2018-04-18T07:40:56.369Z,4748
2018-04-18T07:41:36.805Z,4728
2018-04-18T07:42:17.136Z,4704
2018-04-18T07:42:57.551Z,4660
2018-04-18T07:43:37.983Z,4512
2018-04-18T07:44:18.390Z,4400
2018-04-18T07:44:58.832Z,4336
2018-04-18T07:45:39.263Z,4276
2018-04-18T07:46:19.670Z,4188
2018-04-18T07:47:00.067Z,4108
2018-04-18T07:47:40.511Z,4020
2018-04-18T07:48:20.868Z,3928
2018-04-18T07:49:01.271Z,3876
2018-04-18T07:49:41.641Z,3836
2018-04-18T07:50:22.099Z,3804
2018-04-18T07:51:02.463Z,3788
2018-04-18T07:53:20.462Z,3640
2018-04-18T07:54:00.901Z,3604
2018-04-18T07:54:41.412Z,3576
2018-04-18T07:55:21.752Z,3540
2018-04-18T07:56:02.165Z,3508
2018-04-18T07:56:42.629Z,3472
2018-04-18T07:57:23.079Z,3436
2018-04-18T07:58:03.447Z,3400
2018-04-18T07:58:43.816Z,3372
2018-04-18T07:59:24.193Z,3356
2018-04-18T08:00:04.633Z,3324
2018-04-18T08:00:45.050Z,3292
2018-04-18T08:01:25.442Z,3264
2018-04-18T08:02:05.982Z,3232
2018-04-18T08:02:46.412Z,3196
2018-04-18T08:03:26.858Z,3176
2018-04-18T08:04:07.236Z,3148
2018-04-18T08:04:47.689Z,3132
2018-04-18T08:05:28.100Z,3108
2018-04-18T08:06:08.483Z,3092
2018-04-18T08:06:48.862Z,3072
2018-04-18T08:07:29.278Z,3056
2018-04-18T08:08:09.722Z,3032
2018-04-18T08:08:50.136Z,3016
2018-04-18T08:09:30.587Z,2996
2018-04-18T08:10:11.029Z,2984
2018-04-18T08:10:51.413Z,2968
2018-04-18T08:11:31.828Z,2952
2018-04-18T08:12:12.335Z,2932
2018-04-18T08:12:52.644Z,2924
2018-04-18T08:13:33.117Z,2904
2018-04-18T08:14:13.915Z,2892
2018-04-18T08:14:55.161Z,2884
2018-04-18T08:15:36.160Z,2876
2018-04-18T08:16:15.959Z,2868
2018-04-18T08:16:56.597Z,2860
2018-04-18T08:17:37.232Z,2848
2018-04-18T08:18:18.355Z,2840
2018-04-18T08:18:58.785Z,2832
2018-04-18T08:19:39.165Z,2820
2018-04-18T08:20:19.623Z,2812
2018-04-18T08:21:00.032Z,2800
2018-04-18T08:21:40.467Z,2788
2018-04-18T08:22:20.911Z,2776
2018-04-18T08:23:01.322Z,2764
2018-04-18T08:23:41.721Z,2756
2018-04-18T08:24:22.136Z,2748
2018-04-18T08:25:02.543Z,2740
2018-04-18T08:25:42.999Z,2736
2018-04-18T08:26:23.393Z,2736
2018-04-18T08:27:03.775Z,2724
2018-04-18T08:27:44.486Z,2720
2018-04-18T08:28:25.112Z,2712
2018-04-18T08:29:05.516Z,2704
2018-04-18T08:29:45.953Z,2696
2018-04-18T08:30:26.318Z,2688
2018-04-18T08:31:06.814Z,2680
2018-04-18T08:31:47.237Z,2672
2018-04-18T08:32:27.713Z,2660
2018-04-18T08:33:08.228Z,2652
2018-04-18T08:33:48.877Z,2644
2018-04-18T08:34:29.337Z,2628
2018-04-18T08:35:09.740Z,2620
2018-04-18T08:35:50.148Z,2608
2018-04-18T08:36:30.617Z,2596
2018-04-18T08:37:11.061Z,2592
2018-04-18T08:37:51.433Z,2584
2018-04-18T08:38:31.855Z,2572
2018-04-18T08:39:12.301Z,2560
2018-04-18T08:39:52.914Z,2548
2018-04-18T08:40:33.343Z,2540
2018-04-18T08:41:13.749Z,2532
2018-04-18T08:41:54.527Z,2520
2018-04-18T08:42:35.072Z,2512
2018-04-18T08:43:15.354Z,2508
2018-04-18T08:43:55.989Z,2500
2018-04-18T08:44:36.418Z,2496
2018-04-18T08:45:16.794Z,2492
2018-04-18T08:45:57.180Z,2488
2018-04-18T08:46:37.729Z,2488
2018-04-18T08:47:18.349Z,2484
2018-04-18T08:47:58.790Z,2484
2018-04-18T08:48:40.373Z,2476
2018-04-18T08:49:20.100Z,2472
2018-04-18T08:50:00.806Z,2468
2018-04-18T08:50:41.278Z,2460
2018-04-18T08:51:21.840Z,2456
2018-04-18T08:52:02.285Z,2452
2018-04-18T08:52:42.747Z,2452
2018-04-18T08:53:23.173Z,2444
2018-04-18T08:54:05.777Z,2440
2018-04-18T08:54:46.118Z,2432
2018-04-18T08:55:26.641Z,2420
2018-04-18T08:56:07.066Z,2416
2018-04-18T08:56:47.630Z,2416
2018-04-18T08:57:28.082Z,2416
2018-04-18T08:58:08.860Z,2416
2018-04-18T08:58:49.290Z,2412
2018-04-18T08:59:30.744Z,2408
2018-04-18T09:00:11.562Z,2404
2018-04-18T09:00:52.234Z,2400
2018-04-18T09:01:33.853Z,2396
2018-04-18T09:02:13.325Z,2388
2018-04-18T09:02:54.035Z,2380
2018-04-18T09:03:35.243Z,2376
2018-04-18T09:04:15.294Z,2372
2018-04-18T09:04:56.384Z,2368
2018-04-18T09:05:36.710Z,2360
2018-04-18T09:06:17.592Z,2356
2018-04-18T09:06:58.056Z,2356
2018-04-18T09:07:38.836Z,2352
2018-04-18T09:08:19.254Z,2344
2018-04-18T09:08:59.646Z,2336
2018-04-18T09:09:40.074Z,2332
2018-04-18T09:10:20.527Z,2328
2018-04-18T09:11:00.934Z,2320
2018-04-18T09:11:41.368Z,2316
2018-04-18T09:12:21.813Z,2308
2018-04-18T09:13:02.219Z,2300
2018-04-18T09:13:42.676Z,2296
2018-04-18T09:14:23.061Z,2288
2018-04-18T09:15:03.462Z,2284
2018-04-18T09:15:43.935Z,2276
2018-04-18T09:16:24.356Z,2272
2018-04-18T09:17:05.081Z,2272
2018-04-18T09:17:45.346Z,2268
2018-04-18T09:18:25.724Z,2272
2018-04-18T09:19:06.100Z,2276
2018-04-18T09:19:46.532Z,2272
2018-04-18T09:20:26.940Z,2272
2018-04-18T09:21:07.351Z,2272
2018-04-18T09:21:47.799Z,2272
2018-04-18T09:22:28.205Z,2276
2018-04-18T09:23:08.589Z,2280
2018-04-18T09:23:49.034Z,2280
2018-04-18T09:24:30.190Z,2280
2018-04-18T09:25:09.974Z,2272
2018-04-18T09:25:50.345Z,2264
2018-04-18T09:26:30.740Z,2260
2018-04-18T09:27:13.131Z,2260
2018-04-18T09:27:54.721Z,2256
2018-04-18T09:28:35.415Z,2248
2018-04-18T09:29:16.127Z,2240
2018-04-18T09:29:56.673Z,2240
2018-04-18T09:30:37.169Z,2236
2018-04-18T09:32:59.311Z,2240
2018-04-18T09:33:39.776Z,2240
2018-04-18T09:34:20.508Z,2236
2018-04-18T09:35:01.025Z,2232
2018-04-18T09:35:41.405Z,2220
2018-04-18T09:36:21.808Z,2208
2018-04-18T09:38:34.348Z,2180
2018-04-18T09:39:15.948Z,2164
2018-04-18T09:39:56.365Z,2156
2018-04-18T09:40:36.852Z,2156
2018-04-18T09:41:17.296Z,2152
2018-04-18T09:41:57.746Z,2148
2018-04-18T09:42:38.831Z,2136
2018-04-18T09:43:19.261Z,2124
2018-04-18T09:43:59.680Z,2116
2018-04-18T09:44:40.042Z,2116
2018-04-18T09:45:20.470Z,2112
2018-04-18T09:46:00.925Z,2096
2018-04-18T09:46:41.843Z,2100
2018-04-18T09:47:22.216Z,2100
2018-04-18T09:48:02.672Z,2084
2018-04-18T09:48:43.023Z,2076
2018-04-18T09:49:23.426Z,2064
2018-04-18T09:50:04.013Z,2056
2018-04-18T09:50:45.020Z,2044
2018-04-18T09:51:25.491Z,2048
2018-04-18T09:52:05.882Z,2032
2018-04-18T09:52:46.266Z,2020
2018-04-18T09:53:26.722Z,2016
2018-04-18T09:54:07.075Z,2012
2018-04-18T09:54:47.529Z,2008
2018-04-18T09:55:27.927Z,2004
2018-04-18T09:56:31.088Z,1988
2018-04-18T09:57:11.772Z,1980
2018-04-18T09:57:52.678Z,1976
2018-04-18T09:58:32.945Z,1984
2018-04-18T09:59:13.304Z,1984
2018-04-18T09:59:53.791Z,1980
2018-04-18T10:00:34.196Z,1968
2018-04-18T10:01:15.077Z,1964
2018-04-18T10:01:58.905Z,1956
2018-04-18T10:02:37.400Z,1952
2018-04-18T10:03:18.545Z,1944
2018-04-18T10:03:59.345Z,1940
2018-04-18T10:41:51.915Z,1720
2018-04-18T10:42:32.789Z,1720
2018-04-18T10:43:13.169Z,1720
2018-04-18T10:43:53.573Z,1720
2018-04-18T10:44:34.210Z,1716
2018-04-18T10:45:14.621Z,1712
2018-04-18T10:45:55.143Z,1708
2018-04-18T10:46:35.539Z,1692
2018-04-18T10:47:16.022Z,1680
2018-04-18T10:47:56.579Z,1688
2018-04-18T10:48:37.024Z,1680
2018-04-18T10:49:17.954Z,1664
2018-04-18T10:49:58.521Z,1652
2018-04-18T10:50:38.908Z,1648
2018-04-18T10:51:19.540Z,1672
2018-04-18T10:51:59.939Z,1668
2018-04-18T10:52:40.300Z,1640
2018-04-18T10:53:20.796Z,1652
2018-04-18T10:54:01.429Z,1644
2018-04-18T10:54:41.783Z,1640
2018-04-18T10:55:22.187Z,1636
2018-04-18T10:56:02.595Z,1644